Time;durP1;ratioP1;P1;durP2;ratioP2;P2;SDS_P1;SDS_P2;PMS_P1;PMS_P2;Temp;Humidity;BMP_temperature;BMP_pressure;BME280_temperature;BME280_humidity;BME280_pressure;Samples;Min_cycle;Max_cycle;Signal;HPM_P1;HPM_P2
2023/08/11 00:00:21;;;;;;;;;;;18.90;70.70;;;;;;5113134;28;19920;-73
2023/08/11 00:02:50;;;;;;;;;;;18.90;70.70;;;;;;5108086;28;20271;-66
2023/08/11 00:05:17;;;;;;;;;;;19.00;70.80;;;;;;5094641;28;20015;-66
2023/08/11 00:07:43;;;;;;;;;;;19.00;70.80;;;;;;5094658;28;19920;-73
2023/08/11 00:10:09;;;;;;;;;;;19.00;70.80;;;;;;5112835;28;20446;-65
2023/08/11 00:12:35;;;;;;;;;;;19.00;70.70;;;;;;5112542;28;19928;-72
2023/08/11 00:15:00;;;;;;;;;;;18.90;70.70;;;;;;5094429;28;19970;-65
2023/08/11 00:17:27;;;;;;;;;;;18.90;70.70;;;;;;5094735;28;19920;-65
2023/08/11 00:19:52;;;;;;;;;;;18.90;71.40;;;;;;5094692;28;19924;-65
2023/08/11 00:22:18;;;;;;;;;;;18.90;70.70;;;;;;5094545;28;19935;-66
2023/08/11 00:24:43;;;;;;;;;;;18.90;70.60;;;;;;5112775;28;20018;-65
2023/08/11 00:27:09;;;;;;;;;;;18.90;70.60;;;;;;5112681;28;19945;-72
2023/08/11 00:29:34;;;;;;;;;;;18.90;70.70;;;;;;5094744;28;20382;-73
2023/08/11 00:32:00;;;;;;;;;;;18.90;70.60;;;;;;5094579;28;20033;-65
2023/08/11 00:34:25;;;;;;;;;;;18.90;70.90;;;;;;5112586;28;20389;-72
2023/08/11 00:36:51;;;;;;;;;;;18.90;70.60;;;;;;5094402;28;19924;-65
2023/08/11 00:39:16;;;;;;;;;;;18.90;70.70;;;;;;5112609;28;19980;-65
2023/08/11 00:41:42;;;;;;;;;;;18.90;70.70;;;;;;5112466;28;20022;-65
2023/08/11 00:44:07;;;;;;;;;;;18.90;70.60;;;;;;5112493;28;19920;-65
2023/08/11 00:46:33;;;;;;;;;;;18.90;70.70;;;;;;5112484;28;19920;-65
2023/08/11 00:48:59;;;;;;;;;;;18.90;70.70;;;;;;5094489;28;19961;-72
2023/08/11 00:51:24;;;;;;;;;;;18.90;70.70;;;;;;5112222;28;19927;-65
2023/08/11 00:53:51;;;;;;;;;;;18.90;70.60;;;;;;5094446;28;19935;-65
2023/08/11 00:56:19;;;;;;;;;;;18.90;70.70;;;;;;5094119;28;19920;-73
2023/08/11 00:58:45;;;;;;;;;;;18.90;70.70;;;;;;5112608;28;20355;-65
2023/08/11 01:01:11;;;;;;;;;;;18.90;70.70;;;;;;5094075;28;20125;-65
2023/08/11 01:03:36;;;;;;;;;;;18.90;70.70;;;;;;5089701;28;20022;-65
2023/08/11 01:06:22;;;;;;;;;;;18.90;70.70;;;;;;5093975;28;19919;-73
2023/08/11 01:11:33;;;;;;;;;;;18.90;70.70;;;;;;5089924;28;19912;-65
2023/08/11 01:14:03;;;;;;;;;;;18.90;70.70;;;;;;5088658;28;19951;-73
2023/08/11 01:16:29;;;;;;;;;;;18.90;70.70;;;;;;5088937;28;19924;-65
2023/08/11 01:18:55;;;;;;;;;;;18.90;70.70;;;;;;5088865;28;20287;-66
2023/08/11 01:21:22;;;;;;;;;;;18.90;70.70;;;;;;5088774;28;19924;-65
2023/08/11 01:23:47;;;;;;;;;;;18.90;70.70;;;;;;5089717;28;19928;-65
2023/08/11 01:26:13;;;;;;;;;;;18.80;70.70;;;;;;5089568;28;19920;-65
2023/08/11 01:28:40;;;;;;;;;;;18.90;70.80;;;;;;5088687;28;19968;-65
2023/08/11 01:31:05;;;;;;;;;;;18.90;70.80;;;;;;5089404;28;20424;-72
2023/08/11 01:33:31;;;;;;;;;;;18.90;70.80;;;;;;5088660;28;19920;-65
2023/08/11 01:35:56;;;;;;;;;;;18.90;70.80;;;;;;5088167;28;19934;-69
2023/08/11 01:38:22;;;;;;;;;;;18.80;70.80;;;;;;5088468;28;20267;-65
2023/08/11 01:40:47;;;;;;;;;;;18.90;70.80;;;;;;5088413;28;20457;-68
2023/08/11 01:43:15;;;;;;;;;;;18.80;70.80;;;;;;5089516;28;19924;-65
2023/08/11 01:45:43;;;;;;;;;;;18.80;70.80;;;;;;5088393;28;20023;-65
2023/08/11 01:48:09;;;;;;;;;;;18.90;70.80;;;;;;5087949;28;19927;-66
2023/08/11 01:50:35;;;;;;;;;;;18.90;70.80;;;;;;5088013;28;19951;-65
2023/08/11 01:53:01;;;;;;;;;;;18.80;70.80;;;;;;5088112;28;19924;-72
2023/08/11 01:55:28;;;;;;;;;;;18.80;70.80;;;;;;5087828;28;19920;-65
2023/08/11 01:57:54;;;;;;;;;;;18.80;70.80;;;;;;5088072;28;19920;-73
2023/08/11 02:00:20;;;;;;;;;;;18.80;70.80;;;;;;5087810;28;19921;-66
2023/08/11 02:02:46;;;;;;;;;;;18.90;70.90;;;;;;5088922;28;19921;-66
2023/08/11 02:05:12;;;;;;;;;;;18.80;70.80;;;;;;5087998;28;19927;-65
2023/08/11 02:07:39;;;;;;;;;;;18.80;70.90;;;;;;5087866;28;20011;-65
2023/08/11 02:10:06;;;;;;;;;;;18.80;70.90;;;;;;5097577;28;19975;-65
2023/08/11 02:12:32;;;;;;;;;;;18.80;70.90;;;;;;5091097;28;19920;-65
2023/08/11 02:14:57;;;;;;;;;;;18.80;70.90;;;;;;5091096;28;19965;-71
2023/08/11 02:17:23;;;;;;;;;;;18.90;70.90;;;;;;5109034;28;20366;-65
2023/08/11 02:19:49;;;;;;;;;;;18.80;70.90;;;;;;5109061;28;20331;-65
2023/08/11 02:22:15;;;;;;;;;;;18.80;70.90;;;;;;5097338;28;20033;-65
2023/08/11 02:24:40;;;;;;;;;;;18.80;70.90;;;;;;5093991;28;19935;-65
2023/08/11 02:27:07;;;;;;;;;;;18.80;70.90;;;;;;5077100;28;19926;-65
2023/08/11 02:29:33;;;;;;;;;;;18.80;70.90;;;;;;5094351;28;19924;-65
2023/08/11 02:31:58;;;;;;;;;;;18.80;70.90;;;;;;5077308;28;20295;-66
2023/08/11 02:34:24;;;;;;;;;;;18.80;70.90;;;;;;5076886;28;19974;-65
2023/08/11 02:36:49;;;;;;;;;;;18.80;70.90;;;;;;5077230;28;19948;-66
2023/08/11 02:39:15;;;;;;;;;;;18.80;71.70;;;;;;5094889;28;19920;-65
2023/08/11 02:41:42;;;;;;;;;;;18.80;71.00;;;;;;5095194;28;20286;-74
2023/08/11 02:44:08;;;;;;;;;;;18.80;70.90;;;;;;5076680;28;19920;-73
2023/08/11 02:46:34;;;;;;;;;;;18.80;70.90;;;;;;5077076;28;20319;-65
2023/08/11 02:48:59;;;;;;;;;;;18.80;70.90;;;;;;5094797;28;20026;-71
2023/08/11 02:51:25;;;;;;;;;;;18.80;71.00;;;;;;5076708;28;19967;-74
2023/08/11 02:53:50;;;;;;;;;;;18.80;71.00;;;;;;5076796;28;20289;-70
2023/08/11 02:56:16;;;;;;;;;;;18.80;71.00;;;;;;5076475;28;19924;-65
2023/08/11 02:58:42;;;;;;;;;;;18.80;71.00;;;;;;5076592;28;19920;-65
2023/08/11 03:01:07;;;;;;;;;;;18.80;71.00;;;;;;5094622;28;19927;-66
2023/08/11 03:03:33;;;;;;;;;;;18.80;71.00;;;;;;5076286;28;19927;-73
2023/08/11 03:05:58;;;;;;;;;;;18.80;71.00;;;;;;5076361;28;20065;-65
2023/08/11 03:08:24;;;;;;;;;;;18.80;71.00;;;;;;5094505;28;20030;-65
2023/08/11 03:10:50;;;;;;;;;;;18.80;71.00;;;;;;5092858;28;19931;-72
2023/08/11 03:13:16;;;;;;;;;;;18.80;71.00;;;;;;5076150;28;19927;-73
2023/08/11 03:15:42;;;;;;;;;;;18.70;71.00;;;;;;5076177;28;19927;-65
2023/08/11 03:18:08;;;;;;;;;;;18.70;71.00;;;;;;5076449;28;20290;-65
2023/08/11 03:20:33;;;;;;;;;;;18.70;71.00;;;;;;5075910;28;19926;-65
2023/08/11 03:22:59;;;;;;;;;;;18.70;71.00;;;;;;5092915;28;19920;-66
2023/08/11 03:25:24;;;;;;;;;;;18.70;71.00;;;;;;5094033;28;20006;-65
2023/08/11 03:27:50;;;;;;;;;;;18.70;71.00;;;;;;5094013;28;20410;-65
2023/08/11 03:30:15;;;;;;;;;;;18.70;71.00;;;;;;5075905;28;19956;-65
2023/08/11 03:32:41;;;;;;;;;;;18.70;71.00;;;;;;5092315;28;19920;-73
2023/08/11 03:35:06;;;;;;;;;;;18.70;71.00;;;;;;5092369;28;19920;-65
2023/08/11 03:37:33;;;;;;;;;;;18.70;71.00;;;;;;5093946;28;19920;-65
2023/08/11 03:39:58;;;;;;;;;;;18.70;71.10;;;;;;5093801;28;19921;-65
2023/08/11 03:42:24;;;;;;;;;;;18.70;71.10;;;;;;5075882;28;20351;-65
2023/08/11 03:44:52;;;;;;;;;;;18.70;71.00;;;;;;5075911;28;19920;-72
2023/08/11 03:47:19;;;;;;;;;;;18.70;71.10;;;;;;5075670;28;19920;-73
2023/08/11 03:49:45;;;;;;;;;;;18.70;71.10;;;;;;5093707;28;20318;-65
2023/08/11 03:52:11;;;;;;;;;;;18.70;71.10;;;;;;5075424;28;19947;-65
2023/08/11 03:54:37;;;;;;;;;;;18.70;71.10;;;;;;5075439;28;19920;-65
2023/08/11 03:57:02;;;;;;;;;;;18.70;71.10;;;;;;5075563;28;19920;-73
2023/08/11 03:59:28;;;;;;;;;;;18.70;71.10;;;;;;5093710;28;19920;-65
2023/08/11 04:01:53;;;;;;;;;;;18.70;71.10;;;;;;5092093;28;19920;-73
2023/08/11 04:04:19;;;;;;;;;;;18.70;71.10;;;;;;5093446;28;19920;-65
2023/08/11 04:06:44;;;;;;;;;;;18.70;71.10;;;;;;5075425;28;19928;-65
2023/08/11 04:09:10;;;;;;;;;;;18.70;71.10;;;;;;5093055;28;19930;-73
2023/08/11 04:11:36;;;;;;;;;;;18.60;71.10;;;;;;5074821;28;20290;-73
2023/08/11 04:14:01;;;;;;;;;;;18.70;71.10;;;;;;5075369;28;20378;-73
2023/08/11 04:16:28;;;;;;;;;;;18.70;71.10;;;;;;5075291;28;19920;-65
2023/08/11 04:18:53;;;;;;;;;;;18.70;71.10;;;;;;5075185;28;19955;-65
2023/08/11 04:21:19;;;;;;;;;;;18.70;71.10;;;;;;5074972;28;19967;-74
2023/08/11 04:23:44;;;;;;;;;;;18.70;71.10;;;;;;5075254;28;19920;-65
2023/08/11 04:26:10;;;;;;;;;;;18.70;71.10;;;;;;5074963;28;19977;-73
2023/08/11 04:28:36;;;;;;;;;;;18.70;71.10;;;;;;5075008;28;19943;-65
2023/08/11 04:31:01;;;;;;;;;;;18.70;71.10;;;;;;5092924;28;19967;-65
2023/08/11 04:33:28;;;;;;;;;;;18.70;71.20;;;;;;5074724;28;20337;-65
2023/08/11 04:35:54;;;;;;;;;;;18.70;71.10;;;;;;5092922;28;19920;-65
2023/08/11 04:38:20;;;;;;;;;;;18.70;71.10;;;;;;5092899;28;19920;-65
2023/08/11 04:40:48;;;;;;;;;;;18.60;71.10;;;;;;5075002;28;20367;-73
2023/08/11 04:43:14;;;;;;;;;;;18.60;71.10;;;;;;5074538;28;19920;-65
2023/08/11 04:45:39;;;;;;;;;;;18.60;71.10;;;;;;5074702;28;20056;-65
2023/08/11 04:48:05;;;;;;;;;;;18.60;71.10;;;;;;5074893;28;19920;-73
2023/08/11 04:50:32;;;;;;;;;;;18.70;71.20;;;;;;5074559;28;19943;-72
2023/08/11 04:52:57;;;;;;;;;;;18.60;71.10;;;;;;5074795;28;20383;-65
2023/08/11 04:55:23;;;;;;;;;;;18.60;71.10;;;;;;5092693;28;19927;-65
2023/08/11 04:57:48;;;;;;;;;;;18.60;71.10;;;;;;5074677;28;20333;-73
2023/08/11 05:00:15;;;;;;;;;;;18.60;71.10;;;;;;5092857;28;19924;-65
2023/08/11 05:02:41;;;;;;;;;;;18.60;71.10;;;;;;5092611;28;20298;-65
2023/08/11 05:05:08;;;;;;;;;;;18.60;71.10;;;;;;5092510;28;19926;-65
2023/08/11 05:07:33;;;;;;;;;;;18.60;71.10;;;;;;5092402;28;19963;-65
2023/08/11 05:09:59;;;;;;;;;;;18.60;71.10;;;;;;5074310;28;19970;-65
2023/08/11 05:12:24;;;;;;;;;;;18.60;71.10;;;;;;5074314;28;19927;-74
2023/08/11 05:14:50;;;;;;;;;;;18.60;71.10;;;;;;5092380;28;19931;-73
2023/08/11 05:17:15;;;;;;;;;;;18.60;71.10;;;;;;5074298;28;20347;-67
2023/08/11 05:19:41;;;;;;;;;;;18.60;71.10;;;;;;5092451;28;20314;-65
2023/08/11 05:22:06;;;;;;;;;;;18.60;71.10;;;;;;5092366;28;19920;-74
2023/08/11 05:24:32;;;;;;;;;;;18.60;71.10;;;;;;5074486;28;20015;-65
2023/08/11 05:26:58;;;;;;;;;;;18.60;71.10;;;;;;5074522;28;19924;-72
2023/08/11 05:29:23;;;;;;;;;;;18.60;71.10;;;;;;5092046;28;19941;-74
2023/08/11 05:31:49;;;;;;;;;;;18.60;71.10;;;;;;5091381;28;20026;-65
2023/08/11 05:34:14;;;;;;;;;;;18.60;71.10;;;;;;5074364;28;19970;-65
2023/08/11 05:36:40;;;;;;;;;;;18.60;71.20;;;;;;5074482;28;20387;-73
2023/08/11 05:39:08;;;;;;;;;;;18.60;71.20;;;;;;5092259;28;20348;-72
2023/08/11 05:41:33;;;;;;;;;;;18.60;71.10;;;;;;5074039;28;20189;-65
2023/08/11 05:43:59;;;;;;;;;;;18.60;71.10;;;;;;5090692;28;19920;-66
2023/08/11 05:46:24;;;;;;;;;;;18.60;71.10;;;;;;5092063;28;19920;-65
2023/08/11 05:48:51;;;;;;;;;;;18.60;71.10;;;;;;5074059;28;19931;-65
2023/08/11 05:51:16;;;;;;;;;;;18.70;71.90;;;;;;5073794;28;19924;-73
2023/08/11 05:53:42;;;;;;;;;;;18.60;71.10;;;;;;5074301;28;19942;-65
2023/08/11 05:56:07;;;;;;;;;;;18.70;71.20;;;;;;5074181;28;20347;-65
2023/08/11 05:58:33;;;;;;;;;;;18.60;71.10;;;;;;5077991;28;19920;-65
2023/08/11 06:01:00;;;;;;;;;;;18.60;71.10;;;;;;5077802;28;19920;-65
2023/08/11 06:03:30;;;;;;;;;;;18.60;71.10;;;;;;5096022;28;20290;-65
2023/08/11 06:05:58;;;;;;;;;;;18.60;71.10;;;;;;5077749;28;20367;-65
2023/08/11 06:08:23;;;;;;;;;;;18.60;71.10;;;;;;5077621;28;19927;-65
2023/08/11 06:10:49;;;;;;;;;;;18.70;71.20;;;;;;5077225;28;20291;-65
2023/08/11 06:13:14;;;;;;;;;;;18.70;71.20;;;;;;5077680;28;20363;-73
2023/08/11 06:15:40;;;;;;;;;;;18.60;71.10;;;;;;5077251;28;19924;-73
2023/08/11 06:18:05;;;;;;;;;;;18.70;71.20;;;;;;5077361;28;19920;-74
2023/08/11 06:20:31;;;;;;;;;;;18.60;71.20;;;;;;5077516;28;20323;-65
2023/08/11 06:22:56;;;;;;;;;;;18.70;71.20;;;;;;5077570;28;19920;-65
2023/08/11 06:25:23;;;;;;;;;;;18.70;71.20;;;;;;5077476;28;20370;-65
2023/08/11 06:27:50;;;;;;;;;;;18.70;71.20;;;;;;5095282;28;19928;-65
2023/08/11 06:30:15;;;;;;;;;;;18.70;71.20;;;;;;5077117;28;20018;-74
2023/08/11 06:32:43;;;;;;;;;;;18.60;71.20;;;;;;5077366;28;20006;-65
2023/08/11 06:35:08;;;;;;;;;;;18.70;71.20;;;;;;5077470;28;19973;-65
2023/08/11 06:37:34;;;;;;;;;;;18.60;71.20;;;;;;5076913;28;20345;-65
2023/08/11 06:39:59;;;;;;;;;;;18.60;71.20;;;;;;5077033;28;20014;-65
2023/08/11 06:42:25;;;;;;;;;;;18.60;71.20;;;;;;5077099;28;20287;-72
2023/08/11 06:44:51;;;;;;;;;;;18.70;71.30;;;;;;5076813;28;19969;-65
2023/08/11 06:47:16;;;;;;;;;;;18.70;71.30;;;;;;5094799;28;19924;-73
2023/08/11 06:49:42;;;;;;;;;;;18.60;71.20;;;;;;5076903;28;19928;-65
2023/08/11 06:52:07;;;;;;;;;;;18.70;71.30;;;;;;5094941;28;19920;-65
2023/08/11 06:54:34;;;;;;;;;;;18.60;71.20;;;;;;5094799;28;19942;-73
2023/08/11 06:57:02;;;;;;;;;;;18.60;71.30;;;;;;5094658;28;19920;-66
2023/08/11 06:59:27;;;;;;;;;;;18.60;71.30;;;;;;5076848;28;19920;-65
2023/08/11 07:01:53;;;;;;;;;;;18.70;71.40;;;;;;5094391;28;19920;-65
2023/08/11 07:04:19;;;;;;;;;;;18.70;71.40;;;;;;5093623;28;20033;-73
2023/08/11 07:06:45;;;;;;;;;;;18.70;71.40;;;;;;5076608;28;19924;-65
2023/08/11 07:09:12;;;;;;;;;;;18.70;71.40;;;;;;5093350;28;19928;-65
2023/08/11 07:11:38;;;;;;;;;;;18.60;71.40;;;;;;5076277;28;19924;-73
2023/08/11 07:14:03;;;;;;;;;;;18.70;71.40;;;;;;5094327;28;20003;-65
2023/08/11 07:16:29;;;;;;;;;;;18.70;71.50;;;;;;5076507;28;19971;-65
2023/08/11 07:18:54;;;;;;;;;;;18.70;71.40;;;;;;5094207;28;19927;-71
2023/08/11 07:21:20;;;;;;;;;;;18.70;71.40;;;;;;5076555;28;20193;-73
2023/08/11 07:23:45;;;;;;;;;;;18.70;71.40;;;;;;5075989;28;19920;-65
2023/08/11 07:26:11;;;;;;;;;;;18.70;71.50;;;;;;5076089;28;19920;-65
2023/08/11 07:28:36;;;;;;;;;;;18.70;71.50;;;;;;5076244;28;20359;-74
2023/08/11 07:31:02;;;;;;;;;;;18.70;71.50;;;;;;5075833;28;19920;-74
2023/08/11 07:33:27;;;;;;;;;;;18.70;71.50;;;;;;5076113;28;19989;-65
2023/08/11 07:35:53;;;;;;;;;;;18.70;71.50;;;;;;5094006;28;19935;-65
2023/08/11 07:38:20;;;;;;;;;;;18.60;71.50;;;;;;5093876;28;19979;-65
2023/08/11 07:40:46;;;;;;;;;;;18.60;71.60;;;;;;5093927;28;19920;-65
2023/08/11 07:43:11;;;;;;;;;;;18.60;71.60;;;;;;5075898;28;19924;-73
2023/08/11 07:45:37;;;;;;;;;;;18.70;71.60;;;;;;5075666;28;20062;-73
2023/08/11 07:48:03;;;;;;;;;;;18.70;71.40;;;;;;5075538;28;19920;-73
2023/08/11 07:50:28;;;;;;;;;;;18.70;71.40;;;;;;5075659;28;19932;-65
2023/08/11 07:52:54;;;;;;;;;;;18.70;71.40;;;;;;5075575;28;19931;-74
2023/08/11 07:55:20;;;;;;;;;;;18.70;71.40;;;;;;5075683;28;20287;-65
2023/08/11 07:57:45;;;;;;;;;;;18.70;71.40;;;;;;5075485;28;19920;-66
2023/08/11 08:00:16;;;;;;;;;;;18.70;71.40;;;;;;5093556;28;19923;-65
2023/08/11 08:02:42;;;;;;;;;;;18.70;71.40;;;;;;5075192;28;19920;-65
2023/08/11 08:05:09;;;;;;;;;;;18.70;71.40;;;;;;5075535;28;19920;-65
2023/08/11 08:07:34;;;;;;;;;;;18.70;71.40;;;;;;5075260;28;20116;-65
2023/08/11 08:10:00;;;;;;;;;;;18.70;71.40;;;;;;5074885;28;20209;-65
2023/08/11 08:12:25;;;;;;;;;;;18.70;71.30;;;;;;5093463;28;19920;-73
2023/08/11 08:14:51;;;;;;;;;;;18.70;71.40;;;;;;5093186;28;19920;-73
2023/08/11 08:17:16;;;;;;;;;;;18.70;71.40;;;;;;5093486;28;19920;-66
2023/08/11 08:19:42;;;;;;;;;;;18.70;71.40;;;;;;5091624;28;19923;-65
2023/08/11 08:22:07;;;;;;;;;;;18.70;71.40;;;;;;5091937;28;20287;-65
2023/08/11 08:24:33;;;;;;;;;;;18.70;71.50;;;;;;5075175;28;19927;-65
2023/08/11 08:26:58;;;;;;;;;;;18.70;71.50;;;;;;5075209;28;19921;-65
2023/08/11 08:29:24;;;;;;;;;;;18.70;71.50;;;;;;5074742;28;19920;-71
2023/08/11 08:31:50;;;;;;;;;;;18.60;71.50;;;;;;5075048;28;19943;-73
2023/08/11 08:34:15;;;;;;;;;;;18.70;71.60;;;;;;5092835;28;19920;-72
2023/08/11 08:36:41;;;;;;;;;;;18.70;71.50;;;;;;5074918;28;19927;-73
2023/08/11 08:39:07;;;;;;;;;;;18.70;71.60;;;;;;5093030;28;20371;-65
2023/08/11 08:41:37;;;;;;;;;;;18.70;71.90;;;;;;5074891;28;19974;-73
2023/08/11 08:44:03;;;;;;;;;;;18.70;71.60;;;;;;5092956;28;20154;-65
2023/08/11 08:46:29;;;;;;;;;;;18.70;71.70;;;;;;5074927;28;20528;-73
2023/08/11 08:49:14;;;;;;;;;;;18.70;71.70;;;;;;5092696;28;20349;-73
2023/08/11 08:51:40;;;;;;;;;;;18.70;71.60;;;;;;5074459;28;19924;-65
2023/08/11 08:54:08;;;;;;;;;;;18.70;71.60;;;;;;5074777;28;19927;-65
2023/08/11 08:56:34;;;;;;;;;;;18.70;71.60;;;;;;5074696;28;20028;-65
2023/08/11 08:59:00;;;;;;;;;;;18.70;71.60;;;;;;5074807;28;19942;-65
2023/08/11 09:01:25;;;;;;;;;;;18.70;71.60;;;;;;5092424;28;20363;-65
2023/08/11 09:03:51;;;;;;;;;;;18.70;71.60;;;;;;5074509;28;20275;-65
2023/08/11 09:06:17;;;;;;;;;;;18.70;71.50;;;;;;5074348;28;20339;-65
2023/08/11 09:08:43;;;;;;;;;;;18.80;71.60;;;;;;5074701;28;19920;-73
2023/08/11 09:11:09;;;;;;;;;;;18.80;71.60;;;;;;5092135;28;19924;-65
2023/08/11 09:13:37;;;;;;;;;;;18.80;71.50;;;;;;5074670;28;19936;-65
2023/08/11 09:16:02;;;;;;;;;;;18.80;71.50;;;;;;5074351;28;20112;-65
2023/08/11 09:18:28;;;;;;;;;;;18.80;71.50;;;;;;5092356;28;20235;-73
2023/08/11 09:20:54;;;;;;;;;;;18.80;71.40;;;;;;5092318;28;19920;-65
2023/08/11 09:23:19;;;;;;;;;;;18.80;71.30;;;;;;5074719;28;19920;-65
2023/08/11 09:25:46;;;;;;;;;;;18.80;71.30;;;;;;5092458;28;20291;-73
2023/08/11 09:28:12;;;;;;;;;;;18.80;71.20;;;;;;5074470;28;19920;-65
2023/08/11 09:30:38;;;;;;;;;;;18.90;71.10;;;;;;5074197;28;19931;-65
2023/08/11 09:33:07;;;;;;;;;;;18.90;71.00;;;;;;5095786;28;19999;-65
2023/08/11 09:35:33;;;;;;;;;;;18.90;70.90;;;;;;5078472;28;19927;-66
2023/08/11 09:37:59;;;;;;;;;;;18.90;70.90;;;;;;5096408;28;20176;-65
2023/08/11 09:40:25;;;;;;;;;;;18.90;70.90;;;;;;5096257;28;19920;-71
2023/08/11 09:42:55;;;;;;;;;;;18.90;70.80;;;;;;5096076;28;19924;-65
2023/08/11 09:45:21;;;;;;;;;;;18.90;70.70;;;;;;5078322;28;19924;-74
2023/08/11 09:47:47;;;;;;;;;;;19.00;70.80;;;;;;5078188;28;20009;-72
2023/08/11 09:50:13;;;;;;;;;;;19.00;70.70;;;;;;5077812;28;20442;-65
2023/08/11 09:52:39;;;;;;;;;;;19.00;70.70;;;;;;5077732;28;20394;-65
2023/08/11 09:55:08;;;;;;;;;;;19.00;70.70;;;;;;5078108;28;19920;-74
2023/08/11 09:57:35;;;;;;;;;;;19.00;70.60;;;;;;5077914;28;19998;-66
2023/08/11 10:00:01;;;;;;;;;;;19.00;70.60;;;;;;5095939;28;19924;-66
2023/08/11 10:02:29;;;;;;;;;;;19.00;70.60;;;;;;5077751;28;20288;-72
2023/08/11 10:04:57;;;;;;;;;;;19.10;70.60;;;;;;5094530;28;20407;-65
2023/08/11 10:07:24;;;;;;;;;;;19.10;70.60;;;;;;5077808;28;19919;-65
2023/08/11 10:09:50;;;;;;;;;;;19.10;70.60;;;;;;5095494;28;19950;-65
2023/08/11 10:12:16;;;;;;;;;;;19.10;70.70;;;;;;5077469;28;20401;-66
2023/08/11 10:14:42;;;;;;;;;;;19.10;70.50;;;;;;5077656;28;20030;-66
2023/08/11 10:17:07;;;;;;;;;;;19.10;70.40;;;;;;5077635;28;20014;-73
2023/08/11 10:19:33;;;;;;;;;;;19.10;70.50;;;;;;5077537;28;19920;-72
2023/08/11 10:21:58;;;;;;;;;;;19.10;70.50;;;;;;5095671;28;20098;-65
2023/08/11 10:24:24;;;;;;;;;;;19.10;70.50;;;;;;5077472;28;19920;-66
2023/08/11 10:26:50;;;;;;;;;;;19.20;70.60;;;;;;5095431;28;19920;-65
2023/08/11 10:29:16;;;;;;;;;;;19.20;70.60;;;;;;5077340;28;19959;-65
2023/08/11 10:31:58;;;;;;;;;;;19.10;70.50;;;;;;5093840;28;20062;-72
2023/08/11 10:34:24;;;;;;;;;;;19.20;70.60;;;;;;5077295;28;19927;-65
2023/08/11 10:36:50;;;;;;;;;;;19.20;70.70;;;;;;5093869;28;20496;-73
2023/08/11 10:39:17;;;;;;;;;;;19.10;70.60;;;;;;5094041;28;20003;-66
2023/08/11 10:41:44;;;;;;;;;;;19.10;70.70;;;;;;5094895;28;20260;-73
2023/08/11 10:44:10;;;;;;;;;;;19.20;70.80;;;;;;5076615;28;20018;-73
2023/08/11 10:46:35;;;;;;;;;;;19.20;70.80;;;;;;5093967;28;20018;-73
2023/08/11 10:51:47;;;;;;;;;;;19.20;70.90;;;;;;5130858;27;19998;-65
2023/08/11 10:54:18;;;;;;;;;;;19.20;71.00;;;;;;5129380;28;20056;-66
2023/08/11 10:56:45;;;;;;;;;;;19.20;71.10;;;;;;5129463;28;19972;-72
2023/08/11 10:59:13;;;;;;;;;;;19.20;71.20;;;;;;5129225;28;20378;-66
2023/08/11 11:01:39;;;;;;;;;;;19.20;71.10;;;;;;5130626;27;19923;-65
2023/08/11 11:04:06;;;;;;;;;;;19.10;71.30;;;;;;5129595;28;19926;-73
2023/08/11 11:06:32;;;;;;;;;;;19.20;71.50;;;;;;5122676;28;20007;-65
2023/08/11 11:08:58;;;;;;;;;;;19.20;71.50;;;;;;5109073;28;19967;-65
2023/08/11 11:11:24;;;;;;;;;;;19.20;71.40;;;;;;5108557;28;20325;-65
2023/08/11 11:13:50;;;;;;;;;;;19.20;71.50;;;;;;5109841;28;19924;-65
2023/08/11 11:16:16;;;;;;;;;;;19.20;71.60;;;;;;5108805;28;20474;-65
2023/08/11 11:18:42;;;;;;;;;;;19.20;71.70;;;;;;5109828;28;19971;-65
2023/08/11 11:21:11;;;;;;;;;;;19.20;71.80;;;;;;5108745;28;19920;-74
2023/08/11 11:23:36;;;;;;;;;;;19.20;71.90;;;;;;5108786;28;19972;-65
2023/08/11 11:26:02;;;;;;;;;;;19.20;71.90;;;;;;5109620;28;20438;-66
2023/08/11 11:28:27;;;;;;;;;;;19.20;71.90;;;;;;5109544;28;19920;-73
2023/08/11 11:30:53;;;;;;;;;;;19.20;71.90;;;;;;5108113;28;19975;-73
2023/08/11 11:33:19;;;;;;;;;;;19.20;72.00;;;;;;5108506;28;19924;-66
2023/08/11 11:35:44;;;;;;;;;;;19.20;72.00;;;;;;5109404;28;19927;-73
2023/08/11 11:38:10;;;;;;;;;;;19.20;72.10;;;;;;5109536;28;19920;-73
2023/08/11 11:40:36;;;;;;;;;;;19.20;72.20;;;;;;5108363;28;20378;-65
2023/08/11 11:43:02;;;;;;;;;;;19.20;72.10;;;;;;5107994;28;20021;-66
2023/08/11 11:45:27;;;;;;;;;;;19.20;72.20;;;;;;5109230;28;20034;-65
2023/08/11 11:47:53;;;;;;;;;;;19.20;72.20;;;;;;5108164;28;19920;-66
2023/08/11 11:50:18;;;;;;;;;;;19.20;72.30;;;;;;5107854;28;19930;-68
2023/08/11 11:52:47;;;;;;;;;;;19.20;72.30;;;;;;5107845;28;19920;-66
2023/08/11 11:55:13;;;;;;;;;;;19.20;72.30;;;;;;5108161;28;19963;-73
2023/08/11 11:57:39;;;;;;;;;;;19.30;72.50;;;;;;5109053;28;19959;-71
2023/08/11 12:00:12;;;;;;;;;;;19.20;72.40;;;;;;5109044;28;19926;-73
2023/08/11 12:02:38;;;;;;;;;;;19.30;72.50;;;;;;5096690;28;19920;-65
2023/08/11 12:05:04;;;;;;;;;;;19.30;72.50;;;;;;5094402;28;19969;-66
2023/08/11 12:07:30;;;;;;;;;;;19.30;72.50;;;;;;5095505;28;19978;-71
2023/08/11 12:09:56;;;;;;;;;;;19.30;72.60;;;;;;5093971;28;19933;-65
2023/08/11 12:12:24;;;;;;;;;;;19.30;72.50;;;;;;5095155;28;19924;-66
2023/08/11 12:14:51;;;;;;;;;;;19.30;72.60;;;;;;5093867;28;19920;-65
2023/08/11 12:17:16;;;;;;;;;;;19.30;72.70;;;;;;5093857;28;19920;-66
2023/08/11 12:19:43;;;;;;;;;;;19.30;72.60;;;;;;5093757;28;19920;-66
2023/08/11 12:22:09;;;;;;;;;;;19.30;72.60;;;;;;5093937;28;20420;-66
2023/08/11 12:24:34;;;;;;;;;;;19.30;72.70;;;;;;5093863;28;19920;-72
2023/08/11 12:27:00;;;;;;;;;;;19.30;72.70;;;;;;5094938;28;19943;-66
2023/08/11 12:29:26;;;;;;;;;;;19.30;72.70;;;;;;5093722;28;20011;-65
2023/08/11 12:31:51;;;;;;;;;;;19.40;72.80;;;;;;5093577;28;19927;-73
2023/08/11 12:34:16;;;;;;;;;;;19.40;72.90;;;;;;5094754;28;19973;-72
2023/08/11 12:36:42;;;;;;;;;;;19.40;72.90;;;;;;5094792;28;20434;-72
2023/08/11 12:39:07;;;;;;;;;;;19.40;73.60;;;;;;5094781;28;19924;-74
2023/08/11 12:41:33;;;;;;;;;;;19.40;72.90;;;;;;5093357;28;19970;-65
2023/08/11 12:43:59;;;;;;;;;;;19.40;72.90;;;;;;5093312;28;19930;-65
2023/08/11 12:46:24;;;;;;;;;;;19.40;72.90;;;;;;5093600;28;19997;-71
2023/08/11 12:48:50;;;;;;;;;;;19.40;72.90;;;;;;5093219;28;19920;-65
2023/08/11 12:51:15;;;;;;;;;;;19.40;72.90;;;;;;5092928;28;19946;-66
2023/08/11 12:53:41;;;;;;;;;;;19.40;72.90;;;;;;5093054;28;20011;-72
2023/08/11 12:56:06;;;;;;;;;;;19.40;73.00;;;;;;5093115;28;19920;-65
2023/08/11 12:58:32;;;;;;;;;;;19.40;73.00;;;;;;5094266;28;19927;-72
2023/08/11 13:00:59;;;;;;;;;;;19.50;73.00;;;;;;5093547;28;19984;-65
2023/08/11 13:03:24;;;;;;;;;;;19.40;73.00;;;;;;5093077;28;19920;-65
2023/08/11 13:05:50;;;;;;;;;;;19.50;73.10;;;;;;5094178;28;19931;-65
2023/08/11 13:08:15;;;;;;;;;;;19.40;73.00;;;;;;5094221;28;19927;-65
2023/08/11 13:10:41;;;;;;;;;;;19.40;73.10;;;;;;5092858;28;19924;-65
2023/08/11 13:13:06;;;;;;;;;;;19.50;73.10;;;;;;5093232;28;19927;-66
2023/08/11 13:15:32;;;;;;;;;;;19.50;73.10;;;;;;5092859;28;19955;-66
2023/08/11 13:17:57;;;;;;;;;;;19.40;73.20;;;;;;5094181;28;20011;-65
2023/08/11 13:20:23;;;;;;;;;;;19.50;73.20;;;;;;5092831;28;20302;-65
2023/08/11 13:22:48;;;;;;;;;;;19.50;73.20;;;;;;5092666;28;19920;-65
2023/08/11 13:25:13;;;;;;;;;;;19.50;73.20;;;;;;5092797;28;19985;-65
2023/08/11 13:27:42;;;;;;;;;;;19.50;73.30;;;;;;5093819;28;19938;-65
2023/08/11 13:30:07;;;;;;;;;;;19.50;73.30;;;;;;5092550;28;20005;-66
2023/08/11 13:32:33;;;;;;;;;;;19.50;73.60;;;;;;5093636;28;20394;-65
2023/08/11 13:34:59;;;;;;;;;;;19.60;73.40;;;;;;5092797;28;19974;-65
2023/08/11 13:37:24;;;;;;;;;;;19.50;73.30;;;;;;5093780;28;19920;-66
2023/08/11 13:39:50;;;;;;;;;;;19.60;73.40;;;;;;5093602;28;19946;-65
2023/08/11 13:42:16;;;;;;;;;;;19.60;73.50;;;;;;5092597;28;19971;-65
2023/08/11 13:44:41;;;;;;;;;;;19.60;73.50;;;;;;5093297;28;20410;-65
2023/08/11 13:47:07;;;;;;;;;;;19.60;73.50;;;;;;5092082;28;19959;-65
2023/08/11 13:49:33;;;;;;;;;;;19.60;73.50;;;;;;5092092;28;19920;-65
2023/08/11 13:51:58;;;;;;;;;;;19.60;73.50;;;;;;5092052;28;20055;-66
2023/08/11 13:54:24;;;;;;;;;;;19.60;73.50;;;;;;5092266;28;19943;-65
2023/08/11 13:56:49;;;;;;;;;;;19.60;73.50;;;;;;5092178;28;20387;-65
2023/08/11 13:59:15;;;;;;;;;;;19.70;73.60;;;;;;5091913;28;20393;-66
2023/08/11 14:01:40;;;;;;;;;;;19.60;73.60;;;;;;5096266;28;19935;-66
2023/08/11 14:04:06;;;;;;;;;;;19.70;73.60;;;;;;5112169;28;19958;-66
2023/08/11 14:06:32;;;;;;;;;;;19.70;73.70;;;;;;5113535;28;19924;-65
2023/08/11 14:08:58;;;;;;;;;;;19.70;73.60;;;;;;5112405;28;19920;-66
2023/08/11 14:11:24;;;;;;;;;;;19.70;73.60;;;;;;5112034;28;20022;-65
2023/08/11 14:13:49;;;;;;;;;;;19.70;73.70;;;;;;5112078;28;19930;-65